sensor_id;sensor_type;location;lat;lon;timestamp;pressure;altitude;pressure_sealevel;temperature;humidity
71805;BME280;59654;52.216;5.616;2023-05-22T00:00:32;101348.94;;;13.90;97.48
71805;BME280;59654;52.216;5.616;2023-05-22T00:01:06;101348.22;;;13.87;96.64
71805;BME280;59654;52.216;5.616;2023-05-22T00:01:42;101338.56;;;13.83;97.86
71805;BME280;59654;52.216;5.616;2023-05-22T00:02:19;101334.25;;;13.78;97.62
71805;BME280;59654;52.216;5.616;2023-05-22T00:02:52;101340.69;;;13.74;97.77
71805;BME280;59654;52.216;5.616;2023-05-22T00:03:23;101339.88;;;13.72;97.33
71805;BME280;59654;52.216;5.616;2023-05-22T00:03:58;101334.69;;;13.69;98.33
71805;BME280;59654;52.216;5.616;2023-05-22T00:04:30;101342.78;;;13.68;98.04
71805;BME280;59654;52.216;5.616;2023-05-22T00:05:07;101333.94;;;13.66;98.79
71805;BME280;59654;52.216;5.616;2023-05-22T00:05:40;101340.16;;;13.66;97.42
71805;BME280;59654;52.216;5.616;2023-05-22T00:06:15;101337.47;;;13.66;98.23
71805;BME280;59654;52.216;5.616;2023-05-22T00:06:48;101335.59;;;13.68;98.91
71805;BME280;59654;52.216;5.616;2023-05-22T00:07:20;101332.81;;;13.71;98.54
71805;BME280;59654;52.216;5.616;2023-05-22T00:07:53;101338.16;;;13.71;98.92
71805;BME280;59654;52.216;5.616;2023-05-22T00:08:27;101331.00;;;13.72;97.92
71805;BME280;59654;52.216;5.616;2023-05-22T00:08:59;101338.94;;;13.73;98.82
71805;BME280;59654;52.216;5.616;2023-05-22T00:09:31;101330.91;;;13.73;98.25
71805;BME280;59654;52.216;5.616;2023-05-22T00:10:06;101331.78;;;13.74;98.87
71805;BME280;59654;52.216;5.616;2023-05-22T00:10:43;101335.47;;;13.71;98.83
71805;BME280;59654;52.216;5.616;2023-05-22T00:11:18;101337.28;;;13.71;98.52
71805;BME280;59654;52.216;5.616;2023-05-22T00:11:50;101333.69;;;13.72;98.50
71805;BME280;59654;52.216;5.616;2023-05-22T00:12:24;101331.94;;;13.71;98.81
71805;BME280;59654;52.216;5.616;2023-05-22T00:12:55;101329.31;;;13.69;98.40
71805;BME280;59654;52.216;5.616;2023-05-22T00:13:28;101333.69;;;13.72;98.82
71805;BME280;59654;52.216;5.616;2023-05-22T00:14:00;101341.63;;;13.73;99.22
71805;BME280;59654;52.216;5.616;2023-05-22T00:14:33;101329.16;;;13.72;98.54
71805;BME280;59654;52.216;5.616;2023-05-22T00:15:07;101330.13;;;13.71;98.49
71805;BME280;59654;52.216;5.616;2023-05-22T00:15:40;101338.06;;;13.73;98.89
71805;BME280;59654;52.216;5.616;2023-05-22T00:16:13;101335.25;;;13.76;98.72
71805;BME280;59654;52.216;5.616;2023-05-22T00:16:45;101331.56;;;13.78;98.35
71805;BME280;59654;52.216;5.616;2023-05-22T00:17:17;101339.63;;;13.78;98.15
71805;BME280;59654;52.216;5.616;2023-05-22T00:17:50;101334.25;;;13.78;98.54
71805;BME280;59654;52.216;5.616;2023-05-22T00:18:23;101326.97;;;13.82;98.22
71805;BME280;59654;52.216;5.616;2023-05-22T00:18:57;101329.66;;;13.82;98.02
71805;BME280;59654;52.216;5.616;2023-05-22T00:19:30;101330.44;;;13.84;97.94
71805;BME280;59654;52.216;5.616;2023-05-22T00:20:04;101334.94;;;13.84;99.06
71805;BME280;59654;52.216;5.616;2023-05-22T00:20:40;101336.69;;;13.85;98.93
71805;BME280;59654;52.216;5.616;2023-05-22T00:21:12;101336.69;;;13.85;98.53
71805;BME280;59654;52.216;5.616;2023-05-22T00:21:44;101339.44;;;13.83;98.45
71805;BME280;59654;52.216;5.616;2023-05-22T00:22:17;101339.50;;;13.82;98.65
71805;BME280;59654;52.216;5.616;2023-05-22T00:22:49;101334.13;;;13.82;98.70
71805;BME280;59654;52.216;5.616;2023-05-22T00:23:24;101335.88;;;13.83;98.57
71805;BME280;59654;52.216;5.616;2023-05-22T00:24:03;101335.00;;;13.82;98.22
71805;BME280;59654;52.216;5.616;2023-05-22T00:24:37;101338.56;;;13.83;99.14
71805;BME280;59654;52.216;5.616;2023-05-22T00:25:09;101340.31;;;13.84;98.67
71805;BME280;59654;52.216;5.616;2023-05-22T00:25:42;101334.00;;;13.85;98.76
71805;BME280;59654;52.216;5.616;2023-05-22T00:26:14;101339.28;;;13.86;98.25
71805;BME280;59654;52.216;5.616;2023-05-22T00:26:47;101336.63;;;13.86;98.14
71805;BME280;59654;52.216;5.616;2023-05-22T00:27:18;101340.09;;;13.88;97.70
71805;BME280;59654;52.216;5.616;2023-05-22T00:27:51;101334.66;;;13.90;97.89
71805;BME280;59654;52.216;5.616;2023-05-22T00:28:22;101332.78;;;13.92;98.17
71805;BME280;59654;52.216;5.616;2023-05-22T00:28:53;101339.88;;;13.93;98.02
71805;BME280;59654;52.216;5.616;2023-05-22T00:29:24;101333.59;;;13.94;97.98
71805;BME280;59654;52.216;5.616;2023-05-22T00:29:55;101333.50;;;13.95;98.07
71805;BME280;59654;52.216;5.616;2023-05-22T00:30:26;101329.84;;;13.98;98.08
71805;BME280;59654;52.216;5.616;2023-05-22T00:30:57;101334.38;;;13.96;98.08
71805;BME280;59654;52.216;5.616;2023-05-22T00:31:28;101328.16;;;13.95;97.54
71805;BME280;59654;52.216;5.616;2023-05-22T00:32:00;101329.03;;;13.96;97.87
71805;BME280;59654;52.216;5.616;2023-05-22T00:32:32;101327.28;;;13.95;97.59
71805;BME280;59654;52.216;5.616;2023-05-22T00:33:04;101323.66;;;13.96;97.53
71805;BME280;59654;52.216;5.616;2023-05-22T00:33:35;101322.84;;;13.94;98.07
71805;BME280;59654;52.216;5.616;2023-05-22T00:34:06;101319.16;;;13.96;98.29
71805;BME280;59654;52.216;5.616;2023-05-22T00:34:39;101314.69;;;13.97;98.15
71805;BME280;59654;52.216;5.616;2023-05-22T00:35:12;101319.16;;;13.96;98.16
71805;BME280;59654;52.216;5.616;2023-05-22T00:35:44;101317.38;;;13.97;97.95
71805;BME280;59654;52.216;5.616;2023-05-22T00:36:19;101311.13;;;13.96;98.42
71805;BME280;59654;52.216;5.616;2023-05-22T00:36:52;101305.78;;;13.96;97.79
71805;BME280;59654;52.216;5.616;2023-05-22T00:37:26;101309.31;;;13.97;97.84
71805;BME280;59654;52.216;5.616;2023-05-22T00:37:58;101301.28;;;13.97;98.15
71805;BME280;59654;52.216;5.616;2023-05-22T00:38:32;101297.72;;;13.96;97.72
71805;BME280;59654;52.216;5.616;2023-05-22T00:39:05;101303.91;;;13.98;98.34
71805;BME280;59654;52.216;5.616;2023-05-22T00:39:37;101292.16;;;14.01;98.03
71805;BME280;59654;52.216;5.616;2023-05-22T00:40:09;101297.47;;;14.02;98.12
71805;BME280;59654;52.216;5.616;2023-05-22T00:40:42;101296.53;;;14.03;97.32
71805;BME280;59654;52.216;5.616;2023-05-22T00:41:19;101292.97;;;14.03;97.29
71805;BME280;59654;52.216;5.616;2023-05-22T00:41:55;101294.84;;;14.01;97.34
71805;BME280;59654;52.216;5.616;2023-05-22T00:42:27;101291.28;;;14.00;97.76
71805;BME280;59654;52.216;5.616;2023-05-22T00:42:59;101294.91;;;13.99;97.69
71805;BME280;59654;52.216;5.616;2023-05-22T00:43:38;101290.50;;;13.98;97.29
71805;BME280;59654;52.216;5.616;2023-05-22T00:44:11;101291.28;;;14.00;98.01
71805;BME280;59654;52.216;5.616;2023-05-22T00:44:44;101289.47;;;14.01;97.81
71805;BME280;59654;52.216;5.616;2023-05-22T00:45:16;101289.41;;;14.02;98.26
71805;BME280;59654;52.216;5.616;2023-05-22T00:45:49;101291.06;;;14.05;98.24
71805;BME280;59654;52.216;5.616;2023-05-22T00:46:28;101289.13;;;14.08;97.35
71805;BME280;59654;52.216;5.616;2023-05-22T00:46:59;101289.84;;;14.12;97.69
71805;BME280;59654;52.216;5.616;2023-05-22T00:47:32;101290.66;;;14.14;97.91
71805;BME280;59654;52.216;5.616;2023-05-22T00:48:05;101293.22;;;14.17;97.65
71805;BME280;59654;52.216;5.616;2023-05-22T00:48:40;101282.34;;;14.20;97.30
71805;BME280;59654;52.216;5.616;2023-05-22T00:49:12;101286.66;;;14.23;96.74
71805;BME280;59654;52.216;5.616;2023-05-22T00:49:45;101281.16;;;14.26;95.84
71805;BME280;59654;52.216;5.616;2023-05-22T00:50:18;101281.03;;;14.29;96.00
71805;BME280;59654;52.216;5.616;2023-05-22T00:50:53;101285.44;;;14.30;96.24
71805;BME280;59654;52.216;5.616;2023-05-22T00:51:25;101279.06;;;14.32;95.69
71805;BME280;59654;52.216;5.616;2023-05-22T00:52:00;101278.13;;;14.33;95.84
71805;BME280;59654;52.216;5.616;2023-05-22T00:52:38;101275.31;;;14.36;95.98
71805;BME280;59654;52.216;5.616;2023-05-22T00:53:13;101272.63;;;14.36;95.12
71805;BME280;59654;52.216;5.616;2023-05-22T00:53:48;101277.91;;;14.38;95.59
71805;BME280;59654;52.216;5.616;2023-05-22T00:54:22;101278.69;;;14.40;95.47
71805;BME280;59654;52.216;5.616;2023-05-22T00:54:55;101271.47;;;14.42;95.54
71805;BME280;59654;52.216;5.616;2023-05-22T00:55:45;101280.31;;;14.44;95.48
71805;BME280;59654;52.216;5.616;2023-05-22T00:56:19;101270.44;;;14.44;95.09
71805;BME280;59654;52.216;5.616;2023-05-22T00:56:55;101274.88;;;14.45;95.17
71805;BME280;59654;52.216;5.616;2023-05-22T00:57:27;101280.16;;;14.47;95.50
71805;BME280;59654;52.216;5.616;2023-05-22T00:58:03;101273.00;;;14.47;94.99
71805;BME280;59654;52.216;5.616;2023-05-22T00:58:39;101271.19;;;14.48;94.90
71805;BME280;59654;52.216;5.616;2023-05-22T00:59:11;101279.16;;;14.49;94.87
71805;BME280;59654;52.216;5.616;2023-05-22T00:59:43;101277.41;;;14.48;95.69
71805;BME280;59654;52.216;5.616;2023-05-22T01:00:16;101277.41;;;14.48;95.25
71805;BME280;59654;52.216;5.616;2023-05-22T01:00:50;101278.34;;;14.47;95.62
71805;BME280;59654;52.216;5.616;2023-05-22T01:01:23;101276.69;;;14.45;95.01
71805;BME280;59654;52.216;5.616;2023-05-22T01:02:07;101277.69;;;14.42;95.04
71805;BME280;59654;52.216;5.616;2023-05-22T01:02:40;101272.47;;;14.39;95.60
71805;BME280;59654;52.216;5.616;2023-05-22T01:03:13;101275.22;;;14.38;95.58
71805;BME280;59654;52.216;5.616;2023-05-22T01:03:50;101276.97;;;14.39;95.21
71805;BME280;59654;52.216;5.616;2023-05-22T01:04:24;101284.31;;;14.35;95.30
71805;BME280;59654;52.216;5.616;2023-05-22T01:04:57;101280.81;;;14.33;96.10
71805;BME280;59654;52.216;5.616;2023-05-22T01:05:29;101279.16;;;14.31;94.80
71805;BME280;59654;52.216;5.616;2023-05-22T01:06:04;101283.78;;;14.27;95.56
71805;BME280;59654;52.216;5.616;2023-05-22T01:06:38;101283.91;;;14.24;95.49
71805;BME280;59654;52.216;5.616;2023-05-22T01:07:12;101278.00;;;14.18;96.67
71805;BME280;59654;52.216;5.616;2023-05-22T01:07:46;101282.75;;;14.11;95.99
71805;BME280;59654;52.216;5.616;2023-05-22T01:08:21;101276.00;;;14.02;96.55
71805;BME280;59654;52.216;5.616;2023-05-22T01:08:53;101278.16;;;13.94;96.18
71805;BME280;59654;52.216;5.616;2023-05-22T01:09:25;101273.94;;;13.89;97.86
71805;BME280;59654;52.216;5.616;2023-05-22T01:09:56;101275.16;;;13.82;98.21
71805;BME280;59654;52.216;5.616;2023-05-22T01:10:29;101278.91;;;13.77;98.12
71805;BME280;59654;52.216;5.616;2023-05-22T01:11:30;101279.97;;;13.73;98.80
71805;BME280;59654;52.216;5.616;2023-05-22T01:12:45;101277.53;;;13.69;98.38
71805;BME280;59654;52.216;5.616;2023-05-22T01:15:06;101272.19;;;13.47;98.25
71805;BME280;59654;52.216;5.616;2023-05-22T01:18:01;101279.78;;;13.37;99.16
71805;BME280;59654;52.216;5.616;2023-05-22T01:19:41;101267.25;;;13.38;99.02
71805;BME280;59654;52.216;5.616;2023-05-22T01:20:37;101261.94;;;13.36;99.65
71805;BME280;59654;52.216;5.616;2023-05-22T01:21:33;101263.88;;;13.33;99.46
71805;BME280;59654;52.216;5.616;2023-05-22T01:24:10;101259.06;;;13.21;99.40
71805;BME280;59654;52.216;5.616;2023-05-22T01:29:40;101263.28;;;13.47;98.80
71805;BME280;59654;52.216;5.616;2023-05-22T01:31:28;101267.22;;;13.58;99.04
71805;BME280;59654;52.216;5.616;2023-05-22T01:32:04;101256.38;;;13.61;98.79
71805;BME280;59654;52.216;5.616;2023-05-22T01:32:43;101266.16;;;13.62;98.86
71805;BME280;59654;52.216;5.616;2023-05-22T01:33:20;101258.03;;;13.65;98.68
71805;BME280;59654;52.216;5.616;2023-05-22T01:34:01;101265.19;;;13.65;98.37
71805;BME280;59654;52.216;5.616;2023-05-22T01:34:34;101249.91;;;13.67;98.87
71805;BME280;59654;52.216;5.616;2023-05-22T01:35:10;101257.97;;;13.67;98.56
71805;BME280;59654;52.216;5.616;2023-05-22T01:35:50;101248.03;;;13.69;99.43
71805;BME280;59654;52.216;5.616;2023-05-22T01:36:33;101257.75;;;13.71;99.19
71805;BME280;59654;52.216;5.616;2023-05-22T01:37:09;101254.13;;;13.72;98.43
71805;BME280;59654;52.216;5.616;2023-05-22T01:37:41;101262.03;;;13.75;98.31
71805;BME280;59654;52.216;5.616;2023-05-22T01:38:19;101256.66;;;13.75;98.77
71805;BME280;59654;52.216;5.616;2023-05-22T01:38:54;101260.22;;;13.76;99.30
71805;BME280;59654;52.216;5.616;2023-05-22T01:39:27;101266.44;;;13.76;99.07
71805;BME280;59654;52.216;5.616;2023-05-22T01:39:59;101256.53;;;13.78;98.99
71805;BME280;59654;52.216;5.616;2023-05-22T01:40:35;101263.50;;;13.83;99.04
71805;BME280;59654;52.216;5.616;2023-05-22T01:41:08;101253.72;;;13.82;98.34
71805;BME280;59654;52.216;5.616;2023-05-22T01:41:45;101251.97;;;13.81;98.30
71805;BME280;59654;52.216;5.616;2023-05-22T01:42:17;101252.78;;;13.83;98.88
71805;BME280;59654;52.216;5.616;2023-05-22T01:42:51;101257.13;;;13.85;98.43
71805;BME280;59654;52.216;5.616;2023-05-22T01:43:24;101251.78;;;13.85;98.23
71805;BME280;59654;52.216;5.616;2023-05-22T01:43:56;101253.59;;;13.85;98.21
71805;BME280;59654;52.216;5.616;2023-05-22T01:44:27;101244.75;;;13.83;98.81
71805;BME280;59654;52.216;5.616;2023-05-22T01:45:00;101251.84;;;13.84;98.36
71805;BME280;59654;52.216;5.616;2023-05-22T01:45:32;101245.47;;;13.86;98.14
71805;BME280;59654;52.216;5.616;2023-05-22T01:46:06;101241.69;;;13.90;98.16
71805;BME280;59654;52.216;5.616;2023-05-22T01:46:38;101247.84;;;13.92;98.59
71805;BME280;59654;52.216;5.616;2023-05-22T01:47:11;101245.09;;;13.94;98.23
71805;BME280;59654;52.216;5.616;2023-05-22T01:47:43;101243.22;;;13.96;98.44
71805;BME280;59654;52.216;5.616;2023-05-22T01:48:16;101243.09;;;13.99;97.49
71805;BME280;59654;52.216;5.616;2023-05-22T01:48:51;101244.78;;;14.01;97.57
71805;BME280;59654;52.216;5.616;2023-05-22T01:49:24;101247.38;;;14.03;96.91
71805;BME280;59654;52.216;5.616;2023-05-22T01:49:58;101243.78;;;14.04;96.45
71805;BME280;59654;52.216;5.616;2023-05-22T01:50:33;101246.28;;;14.07;97.39
71805;BME280;59654;52.216;5.616;2023-05-22T01:52:30;101237.09;;;14.12;96.49
71805;BME280;59654;52.216;5.616;2023-05-22T01:55:11;101238.69;;;14.17;96.28
71805;BME280;59654;52.216;5.616;2023-05-22T01:56:11;101235.06;;;14.18;96.54
71805;BME280;59654;52.216;5.616;2023-05-22T01:57:59;101238.56;;;14.20;95.41
71805;BME280;59654;52.216;5.616;2023-05-22T01:58:52;101234.94;;;14.21;96.70
71805;BME280;59654;52.216;5.616;2023-05-22T01:59:37;101233.91;;;14.23;95.93
71805;BME280;59654;52.216;5.616;2023-05-22T02:00:26;101230.28;;;14.24;96.25
71805;BME280;59654;52.216;5.616;2023-05-22T02:01:18;101232.97;;;14.24;95.73
71805;BME280;59654;52.216;5.616;2023-05-22T02:02:02;101217.72;;;14.25;95.15
71805;BME280;59654;52.216;5.616;2023-05-22T02:02:47;101228.47;;;14.25;94.95
71805;BME280;59654;52.216;5.616;2023-05-22T02:03:37;101232.97;;;14.24;94.34
71805;BME280;59654;52.216;5.616;2023-05-22T02:04:23;101229.41;;;14.24;95.27
71805;BME280;59654;52.216;5.616;2023-05-22T02:05:00;101225.84;;;14.23;95.90
71805;BME280;59654;52.216;5.616;2023-05-22T02:05:42;101226.66;;;14.25;95.71
71805;BME280;59654;52.216;5.616;2023-05-22T02:06:20;101225.78;;;14.25;95.19
71805;BME280;59654;52.216;5.616;2023-05-22T02:07:01;101226.66;;;14.25;95.02
71805;BME280;59654;52.216;5.616;2023-05-22T02:07:37;101229.25;;;14.27;95.79
71805;BME280;59654;52.216;5.616;2023-05-22T02:08:11;101219.41;;;14.27;95.72
71805;BME280;59654;52.216;5.616;2023-05-22T02:08:45;101222.09;;;14.27;96.23
71805;BME280;59654;52.216;5.616;2023-05-22T02:09:20;101227.38;;;14.29;95.50
71805;BME280;59654;52.216;5.616;2023-05-22T02:09:55;101224.75;;;14.27;95.41
71805;BME280;59654;52.216;5.616;2023-05-22T02:10:28;101229.34;;;14.25;95.69
71805;BME280;59654;52.216;5.616;2023-05-22T02:11:03;101230.19;;;14.26;95.36
71805;BME280;59654;52.216;5.616;2023-05-22T02:11:36;101220.41;;;14.25;96.17
71805;BME280;59654;52.216;5.616;2023-05-22T02:12:11;101218.75;;;14.22;95.33
71805;BME280;59654;52.216;5.616;2023-05-22T02:12:43;101220.78;;;14.17;95.40
71805;BME280;59654;52.216;5.616;2023-05-22T02:13:14;101222.75;;;14.13;95.19
71805;BME280;59654;52.216;5.616;2023-05-22T02:13:47;101221.13;;;14.09;95.08
71805;BME280;59654;52.216;5.616;2023-05-22T02:14:19;101217.59;;;14.09;95.54
71805;BME280;59654;52.216;5.616;2023-05-22T02:14:50;101218.53;;;14.08;95.26
71805;BME280;59654;52.216;5.616;2023-05-22T02:15:21;101216.78;;;14.07;95.99
71805;BME280;59654;52.216;5.616;2023-05-22T02:15:54;101219.47;;;14.07;95.48
71805;BME280;59654;52.216;5.616;2023-05-22T02:16:28;101220.34;;;14.07;95.10
71805;BME280;59654;52.216;5.616;2023-05-22T02:17:00;101223.03;;;14.07;95.02
71805;BME280;59654;52.216;5.616;2023-05-22T02:17:38;101216.78;;;14.07;95.71
71805;BME280;59654;52.216;5.616;2023-05-22T02:18:14;101219.47;;;14.07;94.78
71805;BME280;59654;52.216;5.616;2023-05-22T02:18:47;101219.47;;;14.07;95.45
71805;BME280;59654;52.216;5.616;2023-05-22T02:19:18;101216.72;;;14.08;94.56
71805;BME280;59654;52.216;5.616;2023-05-22T02:19:50;101215.84;;;14.08;94.80
71805;BME280;59654;52.216;5.616;2023-05-22T02:20:21;101215.84;;;14.08;94.62
71805;BME280;59654;52.216;5.616;2023-05-22T02:20:52;101211.28;;;14.10;94.62
71805;BME280;59654;52.216;5.616;2023-05-22T02:21:23;101216.56;;;14.11;95.09
71805;BME280;59654;52.216;5.616;2023-05-22T02:21:53;101211.16;;;14.13;94.29
71805;BME280;59654;52.216;5.616;2023-05-22T02:22:24;101214.69;;;14.13;94.81
71805;BME280;59654;52.216;5.616;2023-05-22T02:22:56;101217.44;;;14.12;93.55
71805;BME280;59654;52.216;5.616;2023-05-22T02:23:27;101219.19;;;14.13;94.82
71805;BME280;59654;52.216;5.616;2023-05-22T02:24:01;101216.44;;;14.14;94.64
71805;BME280;59654;52.216;5.616;2023-05-22T02:24:34;101216.44;;;14.14;93.77
71805;BME280;59654;52.216;5.616;2023-05-22T02:25:06;101214.56;;;14.17;93.49
71805;BME280;59654;52.216;5.616;2023-05-22T02:25:41;101215.44;;;14.17;93.38
71805;BME280;59654;52.216;5.616;2023-05-22T02:26:12;101213.63;;;14.18;93.66
71805;BME280;59654;52.216;5.616;2023-05-22T02:26:42;101206.59;;;14.15;93.46
71805;BME280;59654;52.216;5.616;2023-05-22T02:27:14;101210.22;;;14.14;93.90
71805;BME280;59654;52.216;5.616;2023-05-22T02:27:46;101206.66;;;14.13;93.86
71805;BME280;59654;52.216;5.616;2023-05-22T02:28:19;101209.41;;;14.12;93.20
71805;BME280;59654;52.216;5.616;2023-05-22T02:28:50;101206.84;;;14.09;93.10
71805;BME280;59654;52.216;5.616;2023-05-22T02:29:21;101209.53;;;14.09;93.11
71805;BME280;59654;52.216;5.616;2023-05-22T02:29:52;101204.19;;;14.09;94.00
71805;BME280;59654;52.216;5.616;2023-05-22T02:30:23;101208.66;;;14.08;93.31
71805;BME280;59654;52.216;5.616;2023-05-22T02:30:56;101205.13;;;14.08;93.97
71805;BME280;59654;52.216;5.616;2023-05-22T02:31:27;101204.25;;;14.07;93.97
71805;BME280;59654;52.216;5.616;2023-05-22T02:32:00;101206.94;;;14.07;93.00
71805;BME280;59654;52.216;5.616;2023-05-22T02:32:31;101213.22;;;14.06;93.53
71805;BME280;59654;52.216;5.616;2023-05-22T02:33:02;101199.91;;;14.05;94.03
71805;BME280;59654;52.216;5.616;2023-05-22T02:33:35;101207.94;;;14.05;93.89
71805;BME280;59654;52.216;5.616;2023-05-22T02:34:06;101208.81;;;14.05;94.28
71805;BME280;59654;52.216;5.616;2023-05-22T02:34:37;101208.81;;;14.05;94.33
71805;BME280;59654;52.216;5.616;2023-05-22T02:35:08;101208.81;;;14.05;94.43
71805;BME280;59654;52.216;5.616;2023-05-22T02:35:39;101215.03;;;14.06;93.42
71805;BME280;59654;52.216;5.616;2023-05-22T02:36:10;101215.16;;;14.04;93.48
71805;BME280;59654;52.216;5.616;2023-05-22T02:36:42;101215.16;;;14.04;93.96
71805;BME280;59654;52.216;5.616;2023-05-22T02:37:13;101222.31;;;14.04;92.97
71805;BME280;59654;52.216;5.616;2023-05-22T02:37:45;101215.22;;;14.03;93.01
71805;BME280;59654;52.216;5.616;2023-05-22T02:38:17;101216.09;;;14.03;92.75
71805;BME280;59654;52.216;5.616;2023-05-22T02:38:48;101217.03;;;14.02;93.13
71805;BME280;59654;52.216;5.616;2023-05-22T02:39:19;101211.66;;;14.02;94.33
71805;BME280;59654;52.216;5.616;2023-05-22T02:39:50;101211.66;;;14.02;93.34
71805;BME280;59654;52.216;5.616;2023-05-22T02:40:21;101214.34;;;14.02;93.36
71805;BME280;59654;52.216;5.616;2023-05-22T02:40:53;101210.84;;;14.00;93.35
71805;BME280;59654;52.216;5.616;2023-05-22T02:41:24;101216.22;;;14.00;93.75
71805;BME280;59654;52.216;5.616;2023-05-22T02:41:56;101221.66;;;13.99;93.59
71805;BME280;59654;52.216;5.616;2023-05-22T02:42:27;101217.22;;;13.98;93.87
71805;BME280;59654;52.216;5.616;2023-05-22T02:42:58;101221.72;;;13.97;93.40
71805;BME280;59654;52.216;5.616;2023-05-22T02:43:30;101215.41;;;13.98;93.57
71805;BME280;59654;52.216;5.616;2023-05-22T02:44:01;101221.66;;;13.99;94.22
71805;BME280;59654;52.216;5.616;2023-05-22T02:44:31;101218.09;;;13.98;94.53
71805;BME280;59654;52.216;5.616;2023-05-22T02:45:03;101219.97;;;13.96;93.68
71805;BME280;59654;52.216;5.616;2023-05-22T02:45:34;101220.97;;;13.94;93.82
71805;BME280;59654;52.216;5.616;2023-05-22T02:46:05;101221.13;;;13.91;93.67
71805;BME280;59654;52.216;5.616;2023-05-22T02:46:36;101226.53;;;13.89;93.63
71805;BME280;59654;52.216;5.616;2023-05-22T02:47:07;101216.94;;;13.85;93.49
71805;BME280;59654;52.216;5.616;2023-05-22T02:47:38;101218.81;;;13.83;93.60
71805;BME280;59654;52.216;5.616;2023-05-22T02:48:09;101224.31;;;13.80;93.50
71805;BME280;59654;52.216;5.616;2023-05-22T02:48:40;101219.06;;;13.77;93.64
71805;BME280;59654;52.216;5.616;2023-05-22T02:49:12;101220.94;;;13.75;94.38
71805;BME280;59654;52.216;5.616;2023-05-22T02:49:44;101222.94;;;13.71;94.12
71805;BME280;59654;52.216;5.616;2023-05-22T02:50:15;101221.19;;;13.70;94.17
71805;BME280;59654;52.216;5.616;2023-05-22T02:50:46;101219.38;;;13.71;94.64
71805;BME280;59654;52.216;5.616;2023-05-22T02:51:19;101213.16;;;13.70;93.80
71805;BME280;59654;52.216;5.616;2023-05-22T02:51:50;101212.22;;;13.71;94.78
71805;BME280;59654;52.216;5.616;2023-05-22T02:52:21;101210.41;;;13.72;94.72
71805;BME280;59654;52.216;5.616;2023-05-22T02:52:52;101212.03;;;13.74;93.92
71805;BME280;59654;52.216;5.616;2023-05-22T02:53:23;101208.50;;;13.74;93.75
71805;BME280;59654;52.216;5.616;2023-05-22T02:53:54;101207.47;;;13.76;93.72
71805;BME280;59654;52.216;5.616;2023-05-22T02:54:25;101208.34;;;13.77;94.32
71805;BME280;59654;52.216;5.616;2023-05-22T02:54:56;101207.47;;;13.76;93.80
71805;BME280;59654;52.216;5.616;2023-05-22T02:55:27;101203.88;;;13.77;93.89
71805;BME280;59654;52.216;5.616;2023-05-22T02:55:58;101203.78;;;13.79;93.58
71805;BME280;59654;52.216;5.616;2023-05-22T02:56:28;101201.13;;;13.79;93.92
71805;BME280;59654;52.216;5.616;2023-05-22T02:56:59;101206.47;;;13.79;93.71
71805;BME280;59654;52.216;5.616;2023-05-22T02:57:30;101198.44;;;13.79;93.66
71805;BME280;59654;52.216;5.616;2023-05-22T02:58:02;101210.91;;;13.80;94.04
71805;BME280;59654;52.216;5.616;2023-05-22T02:58:33;101213.56;;;13.80;93.17
71805;BME280;59654;52.216;5.616;2023-05-22T02:59:04;101210.03;;;13.79;94.11
71805;BME280;59654;52.216;5.616;2023-05-22T02:59:35;101205.59;;;13.78;93.45
71805;BME280;59654;52.216;5.616;2023-05-22T03:00:07;101210.97;;;13.78;93.51
71805;BME280;59654;52.216;5.616;2023-05-22T03:00:40;101210.97;;;13.78;93.74
71805;BME280;59654;52.216;5.616;2023-05-22T03:01:12;101204.72;;;13.78;94.07
71805;BME280;59654;52.216;5.616;2023-05-22T03:01:43;101200.25;;;13.78;93.39
71805;BME280;59654;52.216;5.616;2023-05-22T03:02:14;101211.84;;;13.79;93.58
71805;BME280;59654;52.216;5.616;2023-05-22T03:02:47;101201.13;;;13.79;93.33
71805;BME280;59654;52.216;5.616;2023-05-22T03:03:19;101203.88;;;13.77;92.76
71805;BME280;59654;52.216;5.616;2023-05-22T03:03:50;101199.44;;;13.76;93.37
71805;BME280;59654;52.216;5.616;2023-05-22T03:04:21;101203.06;;;13.75;93.59
71805;BME280;59654;52.216;5.616;2023-05-22T03:04:53;101200.38;;;13.75;94.29
71805;BME280;59654;52.216;5.616;2023-05-22T03:05:24;101203.94;;;13.76;93.99
71805;BME280;59654;52.216;5.616;2023-05-22T03:05:55;101202.13;;;13.76;94.22
71805;BME280;59654;52.216;5.616;2023-05-22T03:06:27;101200.25;;;13.78;93.89
71805;BME280;59654;52.216;5.616;2023-05-22T03:06:59;101197.56;;;13.78;94.29
71805;BME280;59654;52.216;5.616;2023-05-22T03:07:31;101198.44;;;13.79;94.07
71805;BME280;59654;52.216;5.616;2023-05-22T03:08:04;101202.00;;;13.79;93.71
71805;BME280;59654;52.216;5.616;2023-05-22T03:08:35;101204.59;;;13.81;94.64
71805;BME280;59654;52.216;5.616;2023-05-22T03:09:12;101207.28;;;13.81;94.32
71805;BME280;59654;52.216;5.616;2023-05-22T03:09:43;101204.59;;;13.81;93.94
71805;BME280;59654;52.216;5.616;2023-05-22T03:10:13;101203.72;;;13.81;93.69
71805;BME280;59654;52.216;5.616;2023-05-22T03:10:44;101196.56;;;13.81;93.71
71805;BME280;59654;52.216;5.616;2023-05-22T03:11:16;101200.09;;;13.82;93.92
71805;BME280;59654;52.216;5.616;2023-05-22T03:11:46;101199.19;;;13.83;93.97
71805;BME280;59654;52.216;5.616;2023-05-22T03:12:17;101200.03;;;13.83;93.05
71805;BME280;59654;52.216;5.616;2023-05-22T03:12:48;101202.66;;;13.85;93.73
71805;BME280;59654;52.216;5.616;2023-05-22T03:13:21;101201.78;;;13.84;93.17
71805;BME280;59654;52.216;5.616;2023-05-22T03:13:52;101201.72;;;13.86;94.00
71805;BME280;59654;52.216;5.616;2023-05-22T03:14:23;101205.19;;;13.88;94.20
71805;BME280;59654;52.216;5.616;2023-05-22T03:14:53;101208.81;;;13.87;93.88
71805;BME280;59654;52.216;5.616;2023-05-22T03:15:25;101202.41;;;13.89;93.23